Terminal Aerodrome Forecast
Issued by NWS

Home | Current Version | Previous Version | Text Only | Print | Product List | Glossary On
Versions: 1 2 3 4 5 6 7 8 9 10 11 12 13 14 15 16 17 18 19 20 21 22 23 24 25
000
FTUS42 KKEY 270900 AAA
TAFMTH
TAF AMD
KMTH 270900Z 2709/2806 08010G17KT P6SM FEW025
     FM272000 09013G20KT P6SM SCT024=

USA.gov is the U.S. government's official web portal to all federal, state and local government web resources and services.